ADDS METAR Data INFO
IDs: Format: Raw Decoded Include TAF

Data at: 1556 UTC 12 Dec 2017

KAIZ 121456Z AUTO 32005KT 10SM CLR M04/M08 A3032 RMK AO2 SLP271 T10391083 51012 FZRANO
KAIZ 121356Z AUTO 32007KT 280V350 10SM CLR M04/M08 A3032 RMK AO2 SLP271 T10441083 FZRANO
KAIZ 121256Z AUTO 33005KT 10SM CLR M04/M08 A3030 RMK AO2 SLP265 T10441078 FZRANO
KAIZ 121211Z AUTO 34006KT 10SM SCT021 M03/M07 A3029 RMK AO2 FZRANO
KAIZ 121156Z AUTO 34008G14KT 10SM BKN021 M03/M07 A3028 RMK AO2 SLP258 T10331072 10039 21033 51019 FZRANO
KAIZ 121146Z AUTO 33007KT 10SM BKN021 M03/M07 A3028 RMK AO2 FZRANO
KAIZ 121056Z AUTO 33005KT 10SM CLR M03/M07 A3026 RMK AO2 SLP254 T10281067 FZRANO
KAIZ 120956Z AUTO 32011G18KT 10SM SCT025 M01/M06 A3024 RMK AO2 SLP246 T10111056 FZRANO
KAIZ 120931Z AUTO VRB06G17KT 10SM SCT028 M01/M06 A3024 RMK AO2 FZRANO
KAIZ 120905Z AUTO VRB06G17KT 10SM OVC028 00/M06 A3023 RMK AO2 FZRANO
KAIZ 120856Z AUTO 32007G14KT 10SM OVC030 01/M05 A3022 RMK AO2 SLP237 T00061050 53019 FZRANO
KAIZ 120756Z AUTO VRB04G16KT 10SM OVC030 02/M04 A3020 RMK AO2 SLP228 T00221044 FZRANO
KAIZ 120656Z AUTO 32011G19KT 10SM OVC030 03/M03 A3018 RMK AO2 SLP221 T00331033
KAIZ 120556Z AUTO 34007G20KT 300V360 10SM OVC032 04/M02 A3017 RMK AO2 SLP216 T00391022 10106 20039 401391033 53035
KAIZ 120456Z AUTO 32012G23KT 280V360 10SM OVC034 06/M02 A3013 RMK AO2 PK WND 32026/0404 SLP205 T00611017
KAIZ 120356Z AUTO 32014G23KT 10SM OVC034 08/01 A3009 RMK AO2 SLP189 T00780011
KAIZ 120256Z AUTO 33012G16KT 300V020 10SM OVC044 09/01 A3006 RMK AO2 SLP180 T00890006 51020
KAIZ 120156Z AUTO 33011G19KT 300V360 10SM OVC050 09/M01 A3005 RMK AO2 SLP178 T00941006
KAIZ 120056Z AUTO 30009G17KT 10SM BKN060 OVC085 10/M01 A3004 RMK AO2 SLP175 T01001011
KAIZ 112356Z AUTO 30007G17KT 10SM FEW065 11/M02 A3000 RMK AO2 SLP163 T01061017 10139 20100 51024
KAIZ 112256Z AUTO 32010G22KT 280V020 10SM CLR 11/M03 A2998 RMK AO2 SLP155 T01111028
KAIZ 112156Z AUTO 32011G25KT 10SM CLR 12/M04 A2995 RMK AO2 SLP146 T01221039 TSNO
KAIZ 112056Z AUTO 28010G17KT 10SM CLR 12/M05 A2993 RMK AO2 SLP138 T01221050 51003
KAIZ 111956Z AUTO 31008G20KT 10SM CLR 12/M06 A2992 RMK AO2 SLP135 T01221056
KAIZ 111856Z AUTO 28009G21KT 10SM CLR 12/M06 A2992 RMK AO2 SLP137 T01171061
KAIZ 111756Z AUTO 28017G23KT 10SM CLR 14/M06 A2992 RMK AO2 SLP133 T01391061 10139 21017 56012
KAIZ 111656Z AUTO 28009G18KT 10SM CLR 13/M07 A2992 RMK AO2 SLP134 T01331067
KAIZ 111556Z AUTO 26012G17KT 10SM CLR 11/M06 A2994 RMK AO2 SLP141 T01111061
KAIZ 111456Z AUTO 24011KT 10SM CLR 08/M06 A2995 RMK AO2 SLP147 T00831056 58023
KAIZ 111356Z AUTO 22006KT 10SM CLR 04/M05 A2998 RMK AO2 SLP156 T00441050
KAIZ 111256Z AUTO 19005KT 10SM CLR 00/M05 A3001 RMK AO2 SLP165 T00001050 FZRANO TSNO
KAIZ 111156Z AUTO 00000KT 10SM CLR M01/M04 A3002 RMK AO2 SLP169 T10111044 11006 21033 56028 FZRANO
KAIZ 111056Z AUTO 15003KT 10SM CLR M01/M04 A3004 RMK AO2 SLP177 T10061044 FZRANO
KAIZ 110956Z AUTO 15003KT 10SM CLR M02/M04 A3007 RMK AO2 SLP186 T10221044 FZRANO
KAIZ 110756Z AUTO 00000KT 10SM CLR M03/M05 A3012 RMK AO2 SLP204 T10281050 FZRANO
KAIZ 110656Z AUTO 00000KT 10SM CLR M02/M04 A3014 RMK AO2 SLP211 T10221044 FZRANO
KAIZ 110556Z AUTO 00000KT 10SM CLR M01/M04 A3015 RMK AO2 SLP214 T10061039 10089 21006 401281072 58007 FZRANO
KAIZ 110456Z AUTO 00000KT 10SM CLR 01/M04 A3017 RMK AO2 SLP220 T00061044 FZRANO